createdAt,value
2023-03-22T00:02:30.876Z,19.10
2023-03-22T00:05:01.684Z,17.95
2023-03-22T00:07:33.643Z,16.02
2023-03-22T00:10:04.645Z,17.42
2023-03-22T00:12:37.829Z,19.25
2023-03-22T00:15:11.554Z,20.17
2023-03-22T00:17:42.329Z,22.20
2023-03-22T00:20:14.298Z,20.52
2023-03-22T00:22:45.115Z,20.77
2023-03-22T00:25:15.914Z,20.75
2023-03-22T00:27:49.101Z,20.30
2023-03-22T00:30:20.038Z,21.25
2023-03-22T00:32:50.782Z,19.70
2023-03-22T00:35:21.736Z,20.25
2023-03-22T00:37:52.497Z,19.75
2023-03-22T00:40:23.458Z,19.77
2023-03-22T00:42:56.829Z,19.40
2023-03-22T00:45:27.602Z,19.20
2023-03-22T00:47:58.480Z,19.70
2023-03-22T00:50:29.253Z,19.85
2023-03-22T00:53:00.126Z,26.25
2023-03-22T00:55:30.786Z,24.60
2023-03-22T00:58:04.209Z,24.02
2023-03-22T01:00:34.967Z,23.05
2023-03-22T01:03:05.935Z,22.60
2023-03-22T01:05:37.535Z,20.67
2023-03-22T01:08:09.474Z,21.25
2023-03-22T01:10:41.971Z,20.60
2023-03-22T01:13:17.847Z,20.60
2023-03-22T01:15:49.858Z,20.42
2023-03-22T01:18:20.822Z,20.50
2023-03-22T01:20:51.566Z,20.35
2023-03-22T01:23:22.530Z,19.33
2023-03-22T01:25:53.726Z,19.40
2023-03-22T01:28:27.496Z,19.95
2023-03-22T01:30:58.855Z,19.17
2023-03-22T01:33:30.032Z,19.88
2023-03-22T01:36:01.508Z,19.13
2023-03-22T01:38:33.074Z,19.88
2023-03-22T01:41:05.150Z,18.88
2023-03-22T01:43:42.507Z,19.13
2023-03-22T01:46:13.736Z,18.67
2023-03-22T01:48:47.072Z,18.55
2023-03-22T01:51:21.837Z,17.95
2023-03-22T01:54:13.845Z,18.15
2023-03-22T01:56:45.544Z,19.95
2023-03-22T01:59:28.092Z,18.10
2023-03-22T02:02:19.164Z,19.42
2023-03-22T02:04:58.371Z,19.77
2023-03-22T02:07:33.358Z,19.50
2023-03-22T02:10:06.175Z,19.77
2023-03-22T02:13:02.305Z,18.75
2023-03-22T02:16:06.895Z,18.42
2023-03-22T02:19:17.197Z,19.85
2023-03-22T02:22:15.909Z,19.42
2023-03-22T02:25:26.756Z,19.48
2023-03-22T02:28:17.545Z,19.92
2023-03-22T02:31:18.007Z,20.27
2023-03-22T02:34:38.831Z,21.23
2023-03-22T02:37:42.820Z,19.35
2023-03-22T02:40:20.996Z,19.00
2023-03-22T02:43:03.272Z,20.00
2023-03-22T02:45:37.996Z,18.33
2023-03-22T02:48:14.411Z,17.70
2023-03-22T02:50:49.695Z,17.70
2023-03-22T02:53:24.532Z,16.77
2023-03-22T02:56:01.614Z,16.98
2023-03-22T02:58:38.537Z,17.10
2023-03-22T03:01:13.372Z,16.30
2023-03-22T03:03:48.377Z,16.13
2023-03-22T03:06:22.129Z,12.68
2023-03-22T03:08:54.212Z,16.10
2023-03-22T03:11:28.272Z,14.75
2023-03-22T03:13:59.375Z,15.30
2023-03-22T03:16:35.299Z,15.27
2023-03-22T03:19:13.313Z,16.10
2023-03-22T03:21:53.871Z,16.88
2023-03-22T03:24:32.992Z,15.93
2023-03-22T03:27:11.532Z,14.13
2023-03-22T03:29:45.623Z,11.43
2023-03-22T03:32:25.902Z,10.95
2023-03-22T03:35:01.844Z,11.30
2023-03-22T03:37:39.612Z,10.68
2023-03-22T03:40:15.144Z,10.43
2023-03-22T03:45:23.506Z,9.13
2023-03-22T03:47:57.337Z,5.10
2023-03-22T03:50:29.849Z,6.65
2023-03-22T03:53:01.968Z,6.70
2023-03-22T03:55:33.862Z,7.63
2023-03-22T03:58:09.326Z,9.52
2023-03-22T04:00:40.303Z,10.57
2023-03-22T04:03:34.610Z,9.82
2023-03-22T04:06:24.635Z,8.73
2023-03-22T04:08:59.743Z,7.90
2023-03-22T04:11:34.773Z,8.43
2023-03-22T04:14:09.591Z,7.72
2023-03-22T04:16:41.614Z,8.20
2023-03-22T04:19:15.645Z,7.05
2023-03-22T04:21:46.587Z,7.00
2023-03-22T04:24:18.039Z,6.43
2023-03-22T04:26:53.787Z,6.70
2023-03-22T04:29:56.756Z,7.38
2023-03-22T04:32:45.813Z,7.15
2023-03-22T04:35:17.736Z,7.00
2023-03-22T04:37:49.112Z,7.05
2023-03-22T04:40:23.464Z,7.30
2023-03-22T04:43:06.789Z,7.03
2023-03-22T04:45:58.520Z,7.03
2023-03-22T04:48:36.465Z,6.78
2023-03-22T04:51:08.205Z,6.32
2023-03-22T04:53:45.219Z,6.38
2023-03-22T04:56:17.981Z,6.55
2023-03-22T04:58:49.647Z,8.30
2023-03-22T05:01:23.324Z,5.70
2023-03-22T05:04:02.826Z,6.20
2023-03-22T05:06:33.790Z,6.07
2023-03-22T05:09:11.960Z,4.97
2023-03-22T05:11:43.611Z,5.35
2023-03-22T05:14:47.005Z,5.60
2023-03-22T05:17:24.143Z,5.80
2023-03-22T05:19:57.988Z,6.13
2023-03-22T05:22:29.739Z,7.82
2023-03-22T05:25:02.023Z,6.20
2023-03-22T05:27:35.195Z,5.95
2023-03-22T05:30:26.089Z,5.45
2023-03-22T05:33:07.831Z,5.20
2023-03-22T05:35:44.763Z,5.60
2023-03-22T05:38:15.845Z,5.75
2023-03-22T05:40:51.446Z,5.82
2023-03-22T05:43:23.018Z,6.88
2023-03-22T05:45:54.728Z,7.82
2023-03-22T05:48:53.838Z,8.27
2023-03-22T05:51:26.020Z,7.03
2023-03-22T05:53:57.970Z,9.88
2023-03-22T05:56:36.365Z,11.52
2023-03-22T05:59:10.224Z,9.07
2023-03-22T06:01:41.472Z,8.65
2023-03-22T06:04:28.640Z,8.13
2023-03-22T06:07:06.218Z,12.75
2023-03-22T06:09:50.513Z,6.40
2023-03-22T06:12:27.742Z,6.30
2023-03-22T06:15:06.020Z,6.80
2023-03-22T06:17:49.100Z,7.88
2023-03-22T06:20:27.474Z,7.45
2023-03-22T06:23:04.571Z,7.93
2023-03-22T06:25:35.802Z,9.18
2023-03-22T06:28:08.704Z,10.48
2023-03-22T06:30:41.927Z,12.35
2023-03-22T06:33:18.935Z,16.73
2023-03-22T06:35:59.214Z,22.15
2023-03-22T06:38:36.334Z,24.77
2023-03-22T06:41:07.326Z,24.90
2023-03-22T06:43:38.126Z,24.70
2023-03-22T06:46:26.652Z,24.08
2023-03-22T06:49:08.214Z,22.45
2023-03-22T06:51:41.761Z,24.98
2023-03-22T06:54:13.519Z,21.83
2023-03-22T06:56:44.497Z,20.50
2023-03-22T06:59:15.456Z,21.23
2023-03-22T07:01:46.139Z,22.40
2023-03-22T07:04:17.311Z,19.58
2023-03-22T07:06:53.248Z,19.60
2023-03-22T07:09:27.717Z,19.38
2023-03-22T07:12:01.895Z,18.92
2023-03-22T07:14:33.236Z,18.83
2023-03-22T07:17:19.551Z,19.27
2023-03-22T07:19:50.444Z,20.70
2023-03-22T07:22:25.144Z,18.38
2023-03-22T07:24:59.981Z,20.00
2023-03-22T07:27:34.234Z,20.42
2023-03-22T07:30:04.887Z,17.88
2023-03-22T07:32:39.225Z,17.98
2023-03-22T07:35:13.867Z,17.15
2023-03-22T07:37:48.654Z,16.40
2023-03-22T07:40:27.434Z,13.57
2023-03-22T07:42:59.378Z,11.57
2023-03-22T07:46:05.278Z,10.70
2023-03-22T07:49:02.479Z,9.70
2023-03-22T07:51:51.305Z,11.23
2023-03-22T07:54:33.572Z,9.38
2023-03-22T07:57:07.012Z,8.38
2023-03-22T07:59:42.188Z,7.32
2023-03-22T08:02:13.657Z,8.15
2023-03-22T08:04:53.170Z,7.45
2023-03-22T08:07:45.708Z,8.15
2023-03-22T08:10:20.501Z,8.57
2023-03-22T08:12:51.539Z,7.00
2023-03-22T08:17:59.205Z,9.30
2023-03-22T08:20:38.570Z,7.20
2023-03-22T08:23:17.094Z,7.63
2023-03-22T08:26:09.915Z,7.60
2023-03-22T08:28:41.241Z,6.20
2023-03-22T08:31:16.603Z,6.80
2023-03-22T08:33:49.647Z,6.95
2023-03-22T08:36:22.998Z,7.10
2023-03-22T08:39:01.970Z,9.30
2023-03-22T08:41:56.496Z,6.88
2023-03-22T08:44:30.006Z,7.72
2023-03-22T08:47:06.367Z,7.90
2023-03-22T08:49:38.024Z,7.72
2023-03-22T08:52:16.384Z,7.55
2023-03-22T08:55:00.106Z,7.43
2023-03-22T08:57:53.891Z,7.85
2023-03-22T09:00:49.720Z,6.88
2023-03-22T09:03:35.748Z,6.57
2023-03-22T09:06:07.215Z,6.90
2023-03-22T09:11:17.998Z,7.15
2023-03-22T09:13:54.277Z,6.93
2023-03-22T09:16:25.284Z,6.20
2023-03-22T09:18:56.255Z,5.90
2023-03-22T09:21:30.068Z,6.88
2023-03-22T09:24:19.411Z,6.53
2023-03-22T09:26:55.699Z,5.53
2023-03-22T09:29:29.461Z,5.90
2023-03-22T09:32:01.376Z,4.70
2023-03-22T09:34:35.900Z,4.60
2023-03-22T09:37:07.928Z,4.55
2023-03-22T09:39:47.189Z,5.20
2023-03-22T09:42:33.597Z,5.22
2023-03-22T09:45:15.585Z,5.03
2023-03-22T09:47:49.598Z,4.70
2023-03-22T09:50:24.279Z,4.25
2023-03-22T09:52:55.762Z,3.70
2023-03-22T09:55:42.987Z,3.90
2023-03-22T09:58:25.441Z,4.20
2023-03-22T10:01:01.830Z,3.47
2023-03-22T10:03:56.375Z,3.47
2023-03-22T10:06:29.433Z,3.25
2023-03-22T10:09:10.157Z,3.40
2023-03-22T10:11:48.633Z,2.80
2023-03-22T10:14:30.934Z,3.38
2023-03-22T10:17:08.536Z,3.47
2023-03-22T10:19:46.522Z,3.70
2023-03-22T10:22:20.562Z,3.80
2023-03-22T10:24:54.166Z,3.33
2023-03-22T10:27:27.080Z,2.72
2023-03-22T10:30:03.099Z,2.50
2023-03-22T10:32:57.170Z,2.17
2023-03-22T10:35:28.982Z,2.75
2023-03-22T10:38:01.936Z,2.85
2023-03-22T10:40:34.842Z,2.15
2023-03-22T10:43:09.655Z,3.10
2023-03-22T10:45:40.643Z,2.70
2023-03-22T10:48:20.433Z,6.18
2023-03-22T10:50:51.549Z,2.50
2023-03-22T10:53:37.766Z,2.70
2023-03-22T10:56:14.606Z,3.33
2023-03-22T10:58:45.452Z,2.58
2023-03-22T11:01:18.532Z,2.70
2023-03-22T11:03:56.063Z,2.80
2023-03-22T11:06:30.151Z,2.50
2023-03-22T11:09:02.841Z,2.90
2023-03-22T11:11:38.076Z,3.08
2023-03-22T11:16:47.650Z,4.38
2023-03-22T11:19:27.612Z,4.20
2023-03-22T11:21:59.379Z,4.47
2023-03-22T11:24:31.903Z,2.67
2023-03-22T11:27:08.338Z,2.53
2023-03-22T11:29:45.512Z,2.42
2023-03-22T11:32:29.724Z,2.75
2023-03-22T11:35:14.448Z,3.35
2023-03-22T11:37:46.220Z,3.13
2023-03-22T11:40:19.424Z,2.63
2023-03-22T11:42:52.588Z,2.03
2023-03-22T11:45:30.020Z,2.70
2023-03-22T11:48:06.229Z,3.08
2023-03-22T11:50:42.185Z,3.50
2023-03-22T11:53:18.211Z,2.20
2023-03-22T11:55:51.676Z,2.58
2023-03-22T11:58:30.647Z,2.88
2023-03-22T12:01:05.261Z,2.88
2023-03-22T12:03:39.830Z,2.83
2023-03-22T12:06:24.032Z,2.47
2023-03-22T12:08:59.798Z,2.90
2023-03-22T12:11:35.708Z,4.63
2023-03-22T12:14:10.171Z,2.53
2023-03-22T12:16:47.868Z,2.33
2023-03-22T12:19:30.917Z,2.00
2023-03-22T12:22:04.915Z,2.35
2023-03-22T12:24:36.099Z,2.50
2023-03-22T12:27:16.237Z,2.50
2023-03-22T12:29:50.861Z,3.13
2023-03-22T12:32:25.726Z,2.70
2023-03-22T12:35:09.204Z,2.53
2023-03-22T12:37:49.680Z,2.70
2023-03-22T12:40:25.901Z,2.80
2023-03-22T12:43:05.834Z,2.90
2023-03-22T12:45:42.877Z,2.85
2023-03-22T12:48:21.048Z,3.15
2023-03-22T12:50:56.364Z,3.70
2023-03-22T12:56:03.068Z,2.95
2023-03-22T12:58:33.746Z,2.85
2023-03-22T13:01:19.597Z,2.50
2023-03-22T13:03:53.943Z,2.88
2023-03-22T13:06:37.642Z,2.75
2023-03-22T13:09:18.676Z,2.60
2023-03-22T13:11:53.209Z,2.80
2023-03-22T13:14:56.329Z,2.38
2023-03-22T13:17:44.868Z,2.40
2023-03-22T13:20:31.961Z,1.88
2023-03-22T13:23:15.024Z,2.30
2023-03-22T13:26:18.355Z,2.45
2023-03-22T13:28:59.125Z,2.10
2023-03-22T13:31:42.793Z,1.60
2023-03-22T13:34:19.726Z,2.88
2023-03-22T13:36:58.486Z,2.10
2023-03-22T13:39:35.101Z,1.92
2023-03-22T13:42:12.701Z,2.25
2023-03-22T13:44:47.182Z,1.80
2023-03-22T13:47:37.394Z,2.97
2023-03-22T13:50:19.183Z,2.42
2023-03-22T13:53:00.716Z,2.55
2023-03-22T13:56:06.277Z,2.42
2023-03-22T13:58:53.818Z,2.65
2023-03-22T14:01:35.347Z,2.60
2023-03-22T14:04:11.032Z,2.92
2023-03-22T14:06:52.223Z,3.15
2023-03-22T14:09:29.167Z,2.47
2023-03-22T14:12:07.210Z,3.10
2023-03-22T14:14:47.270Z,2.30
2023-03-22T14:17:28.228Z,2.90
2023-03-22T14:20:00.096Z,2.38
2023-03-22T14:53:33.360Z,2.90
2023-03-22T14:56:08.515Z,3.90
2023-03-22T14:58:42.142Z,3.28
2023-03-22T15:01:19.510Z,3.35
2023-03-22T15:03:56.426Z,3.03
2023-03-22T15:06:28.640Z,3.95
2023-03-22T15:09:06.959Z,3.30
2023-03-22T15:11:40.254Z,3.60
2023-03-22T15:14:15.358Z,4.78
2023-03-22T15:16:52.573Z,4.00
2023-03-22T15:19:26.017Z,4.45
2023-03-22T15:22:07.061Z,4.78
2023-03-22T15:24:40.851Z,3.80
2023-03-22T15:27:15.694Z,3.65
2023-03-22T15:29:47.316Z,4.13
2023-03-22T15:32:23.293Z,3.60
2023-03-22T15:34:56.334Z,3.33
2023-03-22T15:37:32.058Z,4.35
2023-03-22T15:40:05.134Z,4.15
2023-03-22T15:42:40.177Z,4.35
2023-03-22T15:45:17.762Z,4.82
2023-03-22T15:47:54.921Z,5.22
2023-03-22T15:50:27.518Z,5.47
2023-03-22T15:53:00.688Z,5.35
2023-03-22T15:55:38.058Z,6.63
2023-03-22T15:58:22.317Z,7.50
2023-03-22T16:00:54.249Z,6.45
2023-03-22T16:03:44.531Z,6.95
2023-03-22T16:06:15.870Z,7.30
2023-03-22T16:08:46.893Z,8.40
2023-03-22T16:11:18.142Z,9.73
2023-03-22T16:13:48.894Z,7.50
2023-03-22T16:16:24.101Z,8.23
2023-03-22T16:21:34.356Z,7.13
2023-03-22T16:24:10.390Z,6.68
2023-03-22T16:26:41.913Z,6.50
2023-03-22T16:29:12.808Z,7.28
2023-03-22T16:31:47.897Z,7.53
2023-03-22T16:34:24.414Z,7.85
2023-03-22T16:36:55.981Z,6.05
2023-03-22T16:39:27.410Z,6.60
2023-03-22T16:41:58.136Z,6.53
2023-03-22T16:44:31.889Z,6.75
2023-03-22T16:47:03.662Z,7.30
2023-03-22T16:49:37.234Z,7.03
2023-03-22T16:52:09.465Z,6.70
2023-03-22T16:54:40.755Z,7.32
2023-03-22T16:57:16.526Z,8.43
2023-03-22T16:59:47.563Z,9.15
2023-03-22T17:02:21.609Z,8.10
2023-03-22T17:04:55.004Z,9.50
2023-03-22T17:07:28.294Z,10.10
2023-03-22T17:09:59.077Z,9.55
2023-03-22T17:12:32.362Z,9.27
2023-03-22T17:15:03.678Z,9.00
2023-03-22T17:17:35.294Z,8.48
2023-03-22T17:20:10.022Z,9.40
2023-03-22T17:22:41.106Z,11.57
2023-03-22T17:25:18.319Z,9.63
2023-03-22T17:27:49.955Z,9.30
2023-03-22T17:30:21.498Z,9.27
2023-03-22T17:35:34.389Z,9.43
2023-03-22T17:38:05.488Z,9.38
2023-03-22T17:40:45.796Z,8.80
2023-03-22T17:43:21.959Z,10.10
2023-03-22T17:46:27.040Z,10.07
2023-03-22T17:48:43.508Z,13.98
2023-03-22T17:51:17.653Z,16.73
2023-03-22T17:54:30.821Z,19.35
2023-03-22T17:57:08.814Z,22.33
2023-03-22T17:59:31.679Z,20.40
2023-03-22T18:02:02.425Z,19.23
2023-03-22T18:04:33.363Z,17.48
2023-03-22T18:07:07.035Z,16.10
2023-03-22T18:09:38.415Z,20.67
2023-03-22T18:12:09.889Z,21.95
2023-03-22T18:14:41.242Z,23.17
2023-03-22T18:17:13.599Z,22.60
2023-03-22T18:20:04.067Z,22.35
2023-03-22T18:22:38.533Z,22.17
2023-03-22T18:25:11.687Z,21.60
2023-03-22T18:27:47.683Z,19.83
2023-03-22T18:30:21.835Z,20.75
2023-03-22T18:33:05.696Z,21.42
2023-03-22T18:35:43.236Z,20.65
2023-03-22T18:38:34.017Z,20.90
2023-03-22T18:41:34.553Z,20.73
2023-03-22T18:44:02.583Z,22.05
2023-03-22T18:46:35.370Z,21.33
2023-03-22T18:49:06.567Z,20.65
2023-03-22T18:54:12.314Z,21.83
2023-03-22T18:56:43.085Z,22.33
2023-03-22T18:59:14.027Z,21.15
2023-03-22T19:01:48.665Z,20.95
2023-03-22T19:04:27.890Z,19.08
2023-03-22T19:07:01.155Z,21.73
2023-03-22T19:09:34.876Z,23.45
2023-03-22T19:12:06.912Z,23.02
2023-03-22T19:17:11.881Z,22.92
2023-03-22T19:19:43.042Z,20.23
2023-03-22T19:22:16.792Z,18.98
2023-03-22T19:24:53.208Z,14.70
2023-03-22T19:27:26.557Z,12.98
2023-03-22T19:30:02.143Z,14.00
2023-03-22T19:32:34.382Z,14.45
2023-03-22T19:35:05.483Z,16.17
2023-03-22T19:37:36.890Z,14.85
2023-03-22T19:41:06.124Z,15.27
2023-03-22T19:43:03.143Z,14.45
2023-03-22T19:45:33.991Z,13.65
2023-03-22T19:48:04.837Z,13.27
2023-03-22T19:50:36.264Z,12.65
2023-03-22T19:53:40.259Z,12.90
2023-03-22T19:56:01.505Z,12.70
2023-03-22T19:58:32.447Z,11.50
2023-03-22T20:01:10.451Z,12.38
2023-03-22T20:03:42.190Z,11.10
2023-03-22T20:06:14.515Z,11.77
2023-03-22T20:08:45.187Z,11.70
2023-03-22T20:11:27.619Z,11.13
2023-03-22T20:14:03.752Z,11.50
2023-03-22T20:16:34.711Z,11.13
2023-03-22T20:19:06.669Z,10.82
2023-03-22T20:21:39.004Z,11.40
2023-03-22T20:24:10.077Z,11.18
2023-03-22T20:26:43.624Z,11.25
2023-03-22T20:29:14.492Z,11.15
2023-03-22T20:31:45.445Z,11.88
2023-03-22T20:34:16.523Z,20.83
2023-03-22T20:36:49.071Z,12.32
2023-03-22T20:39:20.840Z,11.55
2023-03-22T20:41:54.814Z,11.27
2023-03-22T20:44:26.215Z,11.95
2023-03-22T20:46:58.138Z,11.95
2023-03-22T20:49:29.614Z,11.57
2023-03-22T20:52:01.159Z,11.85
2023-03-22T20:54:31.912Z,11.88
2023-03-22T20:57:05.400Z,12.18
2023-03-22T20:59:37.399Z,12.73
2023-03-22T21:02:08.804Z,12.63
2023-03-22T21:04:40.198Z,12.23
2023-03-22T21:07:11.414Z,13.20
2023-03-22T21:09:44.093Z,13.45
2023-03-22T21:12:18.955Z,13.50
2023-03-22T21:14:49.848Z,13.83
2023-03-22T21:17:21.635Z,13.88
2023-03-22T21:19:52.407Z,12.82
2023-03-22T21:22:24.479Z,14.02
2023-03-22T21:24:55.788Z,13.57
2023-03-22T21:27:31.167Z,13.40
2023-03-22T21:30:03.080Z,14.95
2023-03-22T21:32:37.371Z,14.15
2023-03-22T21:35:08.707Z,13.75
2023-03-22T21:37:39.850Z,14.20
2023-03-22T21:40:12.685Z,15.52
2023-03-22T21:42:58.348Z,17.05
2023-03-22T21:45:34.480Z,16.95
2023-03-22T21:48:07.378Z,16.13
2023-03-22T21:50:38.231Z,15.00
2023-03-22T21:53:08.981Z,16.13
2023-03-22T21:55:39.883Z,15.95
2023-03-22T21:58:13.672Z,15.07
2023-03-22T22:00:45.049Z,14.35
2023-03-22T22:03:15.895Z,14.25
2023-03-22T22:05:52.149Z,15.57
2023-03-22T22:08:24.144Z,14.68
2023-03-22T22:10:58.154Z,14.48
2023-03-22T22:13:32.335Z,15.43
2023-03-22T22:16:05.319Z,14.63
2023-03-22T22:18:38.599Z,13.70
2023-03-22T22:21:12.014Z,14.18
2023-03-22T22:23:45.951Z,13.68
2023-03-22T22:26:19.477Z,14.07
2023-03-22T22:28:56.345Z,13.50
2023-03-22T22:31:31.589Z,14.38
2023-03-22T22:34:03.238Z,13.20
2023-03-22T22:36:34.078Z,13.35
2023-03-22T22:39:06.622Z,14.23
2023-03-22T22:41:37.647Z,13.18
2023-03-22T22:44:11.419Z,13.93
2023-03-22T22:46:42.453Z,13.95
2023-03-22T22:49:13.390Z,13.85
2023-03-22T22:51:44.350Z,14.38
2023-03-22T22:54:15.870Z,13.07
2023-03-22T22:56:47.073Z,14.00
2023-03-22T22:59:20.567Z,14.82
2023-03-22T23:01:51.238Z,14.18
2023-03-22T23:04:22.140Z,12.40
2023-03-22T23:06:53.083Z,12.15
2023-03-22T23:09:25.429Z,12.13
2023-03-22T23:11:57.955Z,14.20
2023-03-22T23:14:33.323Z,14.68
2023-03-22T23:19:38.529Z,18.67
2023-03-22T23:22:14.543Z,17.17
2023-03-22T23:24:45.864Z,17.77
2023-03-22T23:27:16.906Z,19.27
2023-03-22T23:29:50.540Z,20.38
2023-03-22T23:32:22.321Z,21.38
2023-03-22T23:34:58.139Z,21.45
2023-03-22T23:40:08.720Z,18.27
2023-03-22T23:42:42.073Z,16.52
2023-03-22T23:45:18.226Z,16.05
2023-03-22T23:47:49.219Z,17.83
2023-03-22T23:50:20.103Z,17.52
2023-03-22T23:52:51.679Z,16.80
2023-03-22T23:55:26.615Z,16.88
2023-03-22T23:57:58.354Z,16.65
